createdAt,value
2019-04-16T00:00:15.213Z,4.00
2019-04-16T00:02:43.815Z,3.90
2019-04-16T00:05:12.683Z,3.90
2019-04-16T00:07:42.485Z,3.90
2019-04-16T00:10:11.315Z,3.90
2019-04-16T00:12:39.959Z,3.80
2019-04-16T00:15:08.742Z,3.70
2019-04-16T00:17:37.394Z,3.70
2019-04-16T00:20:07.229Z,3.70
2019-04-16T00:22:35.964Z,3.60
2019-04-16T00:25:05.481Z,3.60
2019-04-16T00:27:34.126Z,3.60
2019-04-16T00:30:05.086Z,3.60
2019-04-16T00:32:34.015Z,3.50
2019-04-16T00:35:03.133Z,3.30
2019-04-16T00:37:31.809Z,3.30
2019-04-16T00:40:00.407Z,3.30
2019-04-16T00:42:29.063Z,3.30
2019-04-16T00:44:57.665Z,3.30
2019-04-16T00:47:26.261Z,3.30
2019-04-16T00:49:57.700Z,3.30
2019-04-16T00:52:25.283Z,3.20
2019-04-16T00:54:53.934Z,3.20
2019-04-16T00:57:22.576Z,3.10
2019-04-16T00:59:54.994Z,3.10
2019-04-16T01:02:21.546Z,3.00
2019-04-16T01:04:50.191Z,2.90
2019-04-16T01:07:18.842Z,2.90
2019-04-16T01:09:47.486Z,2.90
2019-04-16T01:12:16.132Z,3.00
2019-04-16T01:14:44.784Z,2.90
2019-04-16T01:17:13.387Z,2.90
2019-04-16T01:19:42.007Z,2.80
2019-04-16T01:22:10.799Z,2.80
2019-04-16T01:24:41.048Z,2.80
2019-04-16T01:27:09.903Z,2.80
2019-04-16T01:29:38.675Z,2.70
2019-04-16T01:32:10.541Z,2.70
2019-04-16T01:34:37.652Z,2.60
2019-04-16T01:37:06.304Z,2.60
2019-04-16T01:39:34.910Z,2.60
2019-04-16T01:42:03.512Z,2.50
2019-04-16T01:44:32.154Z,2.50
2019-04-16T01:47:03.369Z,2.50
2019-04-16T01:49:31.133Z,2.50
2019-04-16T01:51:59.739Z,2.40
2019-04-16T01:54:28.385Z,2.40
2019-04-16T01:56:59.912Z,2.30
2019-04-16T01:59:27.826Z,2.20
2019-04-16T02:01:56.499Z,2.20
2019-04-16T02:04:25.148Z,2.10
2019-04-16T02:06:54.373Z,2.20
2019-04-16T02:09:24.166Z,2.20
2019-04-16T02:11:52.819Z,2.20
2019-04-16T02:14:22.375Z,2.10
2019-04-16T02:16:55.792Z,2.10
2019-04-16T02:19:21.521Z,2.10
2019-04-16T02:21:50.176Z,2.00
2019-04-16T02:24:19.439Z,2.10
2019-04-16T02:26:48.187Z,2.10
2019-04-16T02:29:16.782Z,2.00
2019-04-16T02:31:47.862Z,2.00
2019-04-16T02:34:15.768Z,1.90
2019-04-16T02:36:44.372Z,1.90
2019-04-16T02:39:13.023Z,1.90
2019-04-16T02:41:41.671Z,1.90
2019-04-16T02:44:14.028Z,1.90
2019-04-16T02:46:40.642Z,1.90
2019-04-16T02:49:09.245Z,1.90
2019-04-16T02:51:41.350Z,1.80
2019-04-16T02:54:08.271Z,1.80
2019-04-16T02:56:37.180Z,1.70
2019-04-16T02:59:11.756Z,1.70
2019-04-16T03:01:36.888Z,1.70
2019-04-16T03:04:05.529Z,1.70
2019-04-16T03:06:34.301Z,1.70
2019-04-16T03:09:05.367Z,1.70
2019-04-16T03:11:34.806Z,1.60
2019-04-16T03:14:03.695Z,1.60
2019-04-16T03:16:32.408Z,1.50
2019-04-16T03:19:01.008Z,1.40
2019-04-16T03:21:29.672Z,1.40
2019-04-16T03:23:58.275Z,1.40
2019-04-16T03:26:26.924Z,1.40
2019-04-16T03:28:58.394Z,1.40
2019-04-16T03:31:25.918Z,1.30
2019-04-16T03:33:54.641Z,1.30
2019-04-16T03:36:23.288Z,1.40
2019-04-16T03:38:51.941Z,1.30
2019-04-16T03:41:20.546Z,1.30
2019-04-16T03:43:49.192Z,1.30
2019-04-16T03:46:17.839Z,1.20
2019-04-16T03:48:46.548Z,1.20
2019-04-16T03:51:15.202Z,1.20
2019-04-16T03:53:46.514Z,1.20
2019-04-16T03:56:14.218Z,1.20
2019-04-16T03:58:42.877Z,1.20
2019-04-16T04:01:14.222Z,1.20
2019-04-16T04:03:41.803Z,1.10
2019-04-16T04:06:10.452Z,1.20
2019-04-16T04:08:39.051Z,1.10
2019-04-16T04:11:10.407Z,1.10
2019-04-16T04:13:38.026Z,1.10
2019-04-16T04:16:06.837Z,1.10
2019-04-16T04:18:35.425Z,1.10
2019-04-16T04:21:04.142Z,1.10
2019-04-16T04:23:32.743Z,1.10
2019-04-16T04:26:01.396Z,1.10
2019-04-16T04:28:30.035Z,1.10
2019-04-16T04:31:01.016Z,1.00
2019-04-16T04:33:29.048Z,1.10
2019-04-16T04:35:57.702Z,1.10
2019-04-16T04:38:26.301Z,1.20
2019-04-16T04:40:54.946Z,1.40
2019-04-16T04:43:23.776Z,1.40
2019-04-16T04:45:52.376Z,1.50
2019-04-16T04:48:24.070Z,1.60
2019-04-16T04:50:51.467Z,1.60
2019-04-16T04:53:20.182Z,1.70
2019-04-16T04:55:48.897Z,1.70
2019-04-16T04:58:17.551Z,1.80
2019-04-16T05:00:46.152Z,1.80
2019-04-16T05:03:15.868Z,1.80
2019-04-16T05:05:45.140Z,1.90
2019-04-16T05:08:13.783Z,1.90
2019-04-16T05:10:43.418Z,1.90
2019-04-16T05:13:13.276Z,1.90
2019-04-16T05:15:42.003Z,1.90
2019-04-16T05:18:11.001Z,1.80
2019-04-16T05:20:39.730Z,1.90
2019-04-16T05:23:08.339Z,1.90
2019-04-16T05:25:36.937Z,2.00
2019-04-16T05:28:05.667Z,2.10
2019-04-16T05:30:34.739Z,2.10
2019-04-16T05:33:05.511Z,2.10
2019-04-16T05:35:33.794Z,2.20
2019-04-16T05:38:02.443Z,2.30
2019-04-16T05:40:34.215Z,2.30
2019-04-16T05:43:01.432Z,2.40
2019-04-16T05:45:30.036Z,2.40
2019-04-16T05:47:58.688Z,2.50
2019-04-16T05:50:29.641Z,2.60
2019-04-16T05:52:57.804Z,2.60
2019-04-16T05:55:26.403Z,2.50
2019-04-16T05:57:57.943Z,2.60
2019-04-16T06:00:25.548Z,2.70
2019-04-16T06:02:54.201Z,2.80
2019-04-16T06:05:26.769Z,2.90
2019-04-16T06:07:53.176Z,3.00
2019-04-16T06:10:21.773Z,3.10
2019-04-16T06:12:50.515Z,3.20
2019-04-16T06:15:22.296Z,3.20
2019-04-16T06:17:49.488Z,3.20
2019-04-16T06:20:20.764Z,3.30
2019-04-16T06:22:48.459Z,3.50
2019-04-16T06:25:17.140Z,3.50
2019-04-16T06:27:45.788Z,3.60
2019-04-16T06:30:14.818Z,3.70
2019-04-16T06:32:43.450Z,3.80
2019-04-16T06:35:12.172Z,3.90
2019-04-16T06:37:40.861Z,4.00
2019-04-16T06:40:09.470Z,4.10
2019-04-16T06:42:38.698Z,4.20
2019-04-16T06:45:08.560Z,4.40
2019-04-16T06:47:41.827Z,4.50
2019-04-16T06:50:07.745Z,4.60
2019-04-16T06:52:36.389Z,4.70
2019-04-16T06:55:06.329Z,4.90
2019-04-16T06:57:34.976Z,5.00
2019-04-16T07:00:07.150Z,5.10
2019-04-16T07:02:37.373Z,5.30
2019-04-16T07:05:06.480Z,5.40
2019-04-16T07:07:39.959Z,5.50
2019-04-16T07:10:05.994Z,5.60
2019-04-16T07:12:37.909Z,5.80
2019-04-16T07:15:07.463Z,5.90
2019-04-16T07:17:36.129Z,6.00
2019-04-16T07:20:06.736Z,6.20
2019-04-16T07:22:35.341Z,6.20
2019-04-16T07:25:06.657Z,6.40
2019-04-16T07:27:38.411Z,6.50
2019-04-16T07:30:08.835Z,6.60
2019-04-16T07:32:37.919Z,6.80
2019-04-16T07:35:07.389Z,6.90
2019-04-16T07:37:36.111Z,7.10
2019-04-16T07:40:10.256Z,7.20
2019-04-16T07:42:50.860Z,7.40
2019-04-16T07:45:11.456Z,7.50
2019-04-16T07:47:38.449Z,7.60
2019-04-16T07:50:07.682Z,7.90
2019-04-16T07:52:38.986Z,8.00
2019-04-16T07:55:07.170Z,8.20
2019-04-16T07:57:35.906Z,8.40
2019-04-16T08:00:09.801Z,8.50
2019-04-16T08:02:38.573Z,8.60
2019-04-16T08:05:09.135Z,8.70
2019-04-16T08:07:37.939Z,9.00
2019-04-16T08:10:06.922Z,9.10
2019-04-16T08:12:45.534Z,9.20
2019-04-16T08:15:15.501Z,9.40
2019-04-16T08:17:44.236Z,9.60
2019-04-16T08:20:13.130Z,9.80
2019-04-16T08:22:47.266Z,9.70
2019-04-16T08:25:12.208Z,9.90
2019-04-16T08:27:40.826Z,10.00
2019-04-16T08:30:10.147Z,10.10
2019-04-16T08:32:38.799Z,10.30
2019-04-16T08:35:07.566Z,10.50
2019-04-16T08:37:48.279Z,10.60
2019-04-16T08:40:08.987Z,10.50
2019-04-16T08:42:44.758Z,10.70
2019-04-16T08:45:09.640Z,10.80
2019-04-16T08:47:38.387Z,11.10
2019-04-16T08:50:07.290Z,11.20
2019-04-16T08:52:38.512Z,11.30
2019-04-16T08:55:06.476Z,11.30
2019-04-16T08:57:35.090Z,11.60
2019-04-16T09:00:06.903Z,11.50
2019-04-16T09:02:36.036Z,11.70
2019-04-16T09:05:10.917Z,11.80
2019-04-16T09:07:36.593Z,12.00
2019-04-16T09:10:17.641Z,12.00
2019-04-16T09:12:43.436Z,12.00
2019-04-16T09:15:10.529Z,12.00
2019-04-16T09:17:39.210Z,12.10
2019-04-16T09:20:09.113Z,12.30
2019-04-16T09:22:48.080Z,12.30
2019-04-16T09:25:12.525Z,12.30
2019-04-16T09:27:38.830Z,12.30
2019-04-16T09:30:10.346Z,12.40
2019-04-16T09:32:38.460Z,12.50
2019-04-16T09:35:10.777Z,12.40
2019-04-16T09:37:37.728Z,12.40
2019-04-16T09:40:16.597Z,12.40
2019-04-16T09:42:37.746Z,12.60
2019-04-16T09:45:07.591Z,12.70
2019-04-16T09:47:36.248Z,12.70
2019-04-16T09:50:09.642Z,12.60
2019-04-16T09:52:36.267Z,12.70
2019-04-16T09:55:05.718Z,12.60
2019-04-16T09:57:34.381Z,12.60
2019-04-16T10:00:08.476Z,12.70
2019-04-16T10:02:44.373Z,12.80
2019-04-16T10:05:17.119Z,13.00
2019-04-16T10:07:45.783Z,12.90
2019-04-16T10:10:14.500Z,13.00
2019-04-16T10:12:43.186Z,13.00
2019-04-16T10:15:12.511Z,13.10
2019-04-16T10:17:41.186Z,13.20
2019-04-16T10:20:09.998Z,13.30
2019-04-16T10:22:38.687Z,13.30
2019-04-16T10:25:07.812Z,13.30
2019-04-16T10:27:36.431Z,13.30
2019-04-16T10:30:07.231Z,13.40
2019-04-16T10:32:35.954Z,13.40
2019-04-16T10:35:05.376Z,13.50
2019-04-16T10:37:34.155Z,13.40
2019-04-16T10:40:10.315Z,13.60
2019-04-16T10:42:41.753Z,13.70
2019-04-16T10:45:12.913Z,13.70
2019-04-16T10:47:41.615Z,13.70
2019-04-16T10:50:10.995Z,14.00
2019-04-16T10:52:39.701Z,14.10
2019-04-16T10:55:12.176Z,14.10
2019-04-16T10:57:40.880Z,14.20
2019-04-16T11:00:10.465Z,14.10
2019-04-16T11:02:39.125Z,14.10
2019-04-16T11:05:08.334Z,14.20
2019-04-16T11:07:36.990Z,14.10
2019-04-16T11:10:06.994Z,14.10
2019-04-16T11:12:35.606Z,14.10
2019-04-16T11:15:05.227Z,14.20
2019-04-16T11:17:33.922Z,14.30
2019-04-16T11:20:03.209Z,14.40
2019-04-16T11:22:31.997Z,14.40
2019-04-16T11:25:00.722Z,14.50
2019-04-16T11:27:29.454Z,14.60
2019-04-16T11:29:58.077Z,14.70
2019-04-16T11:32:26.971Z,14.80
2019-04-16T11:34:55.988Z,14.80
2019-04-16T11:37:26.909Z,14.90
2019-04-16T11:39:58.451Z,14.90
2019-04-16T11:42:28.901Z,15.10
2019-04-16T11:44:57.532Z,15.30
2019-04-16T11:47:28.012Z,15.40
2019-04-16T11:49:56.532Z,15.50
2019-04-16T11:52:25.224Z,15.30
2019-04-16T11:54:53.960Z,15.50
2019-04-16T11:57:22.580Z,15.50
2019-04-16T12:00:05.800Z,15.50
2019-04-16T12:02:21.671Z,15.50
2019-04-16T12:04:50.376Z,15.60
2019-04-16T12:07:19.176Z,15.70
2019-04-16T12:09:47.907Z,15.80
2019-04-16T12:12:16.646Z,15.70
2019-04-16T12:14:45.305Z,15.70
2019-04-16T12:17:13.934Z,15.80
2019-04-16T12:19:44.785Z,15.80
2019-04-16T12:22:13.160Z,15.90
2019-04-16T12:24:41.881Z,16.00
2019-04-16T12:27:10.596Z,16.00
2019-04-16T12:29:39.228Z,16.00
2019-04-16T12:32:07.891Z,16.00
2019-04-16T12:34:36.625Z,16.00
2019-04-16T12:37:05.284Z,16.00
2019-04-16T12:39:35.829Z,16.10
2019-04-16T12:42:04.454Z,16.20
2019-04-16T12:44:44.570Z,16.10
2019-04-16T12:47:03.523Z,16.30
2019-04-16T12:49:32.369Z,16.40
2019-04-16T12:52:01.219Z,16.40
2019-04-16T12:54:30.214Z,16.50
2019-04-16T12:56:59.235Z,16.60
2019-04-16T12:59:27.976Z,16.50
2019-04-16T13:01:56.618Z,16.60
2019-04-16T13:04:25.548Z,17.40
2019-04-16T13:06:54.160Z,20.80
2019-04-16T13:09:22.862Z,23.50
2019-04-16T13:11:51.553Z,24.90
2019-04-16T13:14:20.282Z,25.10
2019-04-16T13:16:48.892Z,24.80
2019-04-16T13:19:17.629Z,26.10
2019-04-16T13:21:46.241Z,27.20
2019-04-16T13:24:15.287Z,25.60
2019-04-16T13:26:43.898Z,27.40
2019-04-16T13:29:12.915Z,28.20
2019-04-16T13:31:42.945Z,29.70
2019-04-16T13:34:11.629Z,31.10
2019-04-16T13:36:40.233Z,33.00
2019-04-16T13:39:10.253Z,32.60
2019-04-16T13:41:38.912Z,33.70
2019-04-16T13:44:08.986Z,33.20
2019-04-16T13:46:38.075Z,32.80
2019-04-16T13:49:06.842Z,33.40
2019-04-16T13:51:35.529Z,35.20
2019-04-16T13:54:04.431Z,36.20
2019-04-16T13:56:33.043Z,36.10
2019-04-16T13:59:01.706Z,35.10
2019-04-16T14:01:30.442Z,36.70
2019-04-16T14:03:59.276Z,34.20
2019-04-16T14:06:28.292Z,35.10
2019-04-16T14:08:56.947Z,35.00
2019-04-16T14:11:25.561Z,34.20
2019-04-16T14:13:54.387Z,33.50
2019-04-16T14:16:23.003Z,33.80
2019-04-16T14:18:51.613Z,32.50
2019-04-16T14:21:20.270Z,33.20
2019-04-16T14:23:48.894Z,32.70
2019-04-16T14:26:17.548Z,32.70
2019-04-16T14:28:52.295Z,32.20
2019-04-16T14:31:17.820Z,31.30
2019-04-16T14:33:46.648Z,32.20
2019-04-16T14:36:15.316Z,33.60
2019-04-16T14:38:43.921Z,32.80
2019-04-16T14:41:15.859Z,32.10
2019-04-16T14:43:42.917Z,31.10
2019-04-16T14:46:11.534Z,30.70
2019-04-16T14:48:45.184Z,29.40
2019-04-16T14:51:10.596Z,30.80
2019-04-16T14:53:39.257Z,30.70
2019-04-16T14:56:07.916Z,31.40
2019-04-16T14:58:36.531Z,30.80
2019-04-16T15:01:05.259Z,30.20
2019-04-16T15:03:33.872Z,29.30
2019-04-16T15:06:02.539Z,29.90
2019-04-16T15:08:31.138Z,29.90
2019-04-16T15:10:59.748Z,30.20
2019-04-16T15:13:28.478Z,30.10
2019-04-16T15:16:08.272Z,29.60
2019-04-16T15:18:27.484Z,29.00
2019-04-16T15:20:56.157Z,29.20
2019-04-16T15:23:24.828Z,29.70
2019-04-16T15:25:53.438Z,29.50
2019-04-16T15:28:22.101Z,30.30
2019-04-16T15:30:50.706Z,29.80
2019-04-16T15:33:19.364Z,29.40
2019-04-16T15:35:48.043Z,28.50
2019-04-16T15:38:16.876Z,27.80
2019-04-16T15:40:47.214Z,28.20
2019-04-16T15:43:19.288Z,27.90
2019-04-16T15:45:46.605Z,26.60
2019-04-16T15:48:18.038Z,27.30
2019-04-16T15:50:45.595Z,27.40
2019-04-16T15:53:14.262Z,27.50
2019-04-16T15:55:42.873Z,27.60
2019-04-16T15:58:11.535Z,27.70
2019-04-16T16:00:40.196Z,26.60
2019-04-16T16:03:08.802Z,25.60
2019-04-16T16:05:37.470Z,26.00
2019-04-16T16:08:06.150Z,25.90
2019-04-16T16:10:34.802Z,25.80
2019-04-16T16:13:03.775Z,26.00
2019-04-16T16:15:32.549Z,24.70
2019-04-16T16:18:01.352Z,23.50
2019-04-16T16:20:30.073Z,22.80
2019-04-16T16:22:59.499Z,22.70
2019-04-16T16:25:28.419Z,22.00
2019-04-16T16:27:57.079Z,21.80
2019-04-16T16:30:25.738Z,21.30
2019-04-16T16:32:54.676Z,21.00
2019-04-16T16:35:23.484Z,20.50
2019-04-16T16:37:52.165Z,20.60
2019-04-16T16:40:20.783Z,19.80
2019-04-16T16:42:49.478Z,19.80
2019-04-16T16:45:18.337Z,19.60
2019-04-16T16:47:46.996Z,19.30
2019-04-16T16:50:15.841Z,18.90
2019-04-16T16:52:44.743Z,18.60
2019-04-16T16:55:13.932Z,18.80
2019-04-16T16:57:42.598Z,18.60
2019-04-16T17:00:11.383Z,18.50
2019-04-16T17:02:39.996Z,18.30
2019-04-16T17:05:08.724Z,18.30
2019-04-16T17:07:37.400Z,18.30
2019-04-16T17:10:07.056Z,17.80
2019-04-16T17:12:35.662Z,17.80
2019-04-16T17:15:08.648Z,17.40
2019-04-16T17:17:36.699Z,17.40
2019-04-16T17:20:05.704Z,17.40
2019-04-16T17:22:34.366Z,17.30
2019-04-16T17:25:03.632Z,17.20
2019-04-16T17:27:32.281Z,17.30
2019-04-16T17:30:00.972Z,17.50
2019-04-16T17:32:29.630Z,17.40
2019-04-16T17:34:58.248Z,17.10
2019-04-16T17:37:28.664Z,16.90
2019-04-16T17:39:57.240Z,16.60
2019-04-16T17:42:25.900Z,16.70
2019-04-16T17:44:54.518Z,16.60
2019-04-16T17:47:31.781Z,16.70
2019-04-16T17:49:53.518Z,16.60
2019-04-16T17:52:22.314Z,16.60
2019-04-16T17:54:50.929Z,16.60
2019-04-16T17:57:22.913Z,16.30
2019-04-16T17:59:49.924Z,16.10
2019-04-16T18:02:18.590Z,16.20
2019-04-16T18:04:47.256Z,16.00
2019-04-16T18:07:15.870Z,15.90
2019-04-16T18:09:44.531Z,16.00
2019-04-16T18:12:13.187Z,15.90
2019-04-16T18:14:41.803Z,15.60
2019-04-16T18:17:10.606Z,15.60
2019-04-16T18:19:39.374Z,15.60
2019-04-16T18:22:07.987Z,15.50
2019-04-16T18:24:36.649Z,15.40
2019-04-16T18:27:05.335Z,15.30
2019-04-16T18:29:33.988Z,15.20
2019-04-16T18:32:02.601Z,15.10
2019-04-16T18:34:31.278Z,15.00
2019-04-16T18:37:00.106Z,14.90
2019-04-16T18:39:28.784Z,14.90
2019-04-16T18:41:57.496Z,14.80
2019-04-16T18:44:29.028Z,14.70
2019-04-16T18:46:56.632Z,14.60
2019-04-16T18:49:25.380Z,14.50
2019-04-16T18:51:54.044Z,14.30
2019-04-16T18:54:22.655Z,14.20
2019-04-16T18:56:51.534Z,14.10
2019-04-16T18:59:20.197Z,14.00
2019-04-16T19:01:49.475Z,13.80
2019-04-16T19:04:18.356Z,13.70
2019-04-16T19:06:47.136Z,13.50
2019-04-16T19:09:16.465Z,13.40
2019-04-16T19:11:45.074Z,13.20
2019-04-16T19:14:14.035Z,13.20
2019-04-16T19:16:42.869Z,13.10
2019-04-16T19:19:11.482Z,12.90
2019-04-16T19:21:42.375Z,12.80
2019-04-16T19:24:10.544Z,12.80
2019-04-16T19:26:39.205Z,12.60
2019-04-16T19:29:13.321Z,12.40
2019-04-16T19:31:38.278Z,12.30
2019-04-16T19:34:10.188Z,12.20
2019-04-16T19:36:37.430Z,12.10
2019-04-16T19:39:10.198Z,12.00
2019-04-16T19:41:37.089Z,11.80
2019-04-16T19:44:07.235Z,11.70
2019-04-16T19:46:36.088Z,11.60
2019-04-16T19:49:04.739Z,11.50
2019-04-16T19:51:33.349Z,11.10
2019-04-16T19:54:02.015Z,11.00
2019-04-16T19:56:33.450Z,11.00
2019-04-16T19:59:01.955Z,10.90
2019-04-16T20:01:30.565Z,10.90
2019-04-16T20:03:59.623Z,10.70
2019-04-16T20:06:28.409Z,10.60
2019-04-16T20:08:57.071Z,10.70
2019-04-16T20:11:25.686Z,10.70
2019-04-16T20:13:54.350Z,10.60
2019-04-16T20:16:22.957Z,10.50
2019-04-16T20:18:51.736Z,10.40
2019-04-16T20:21:20.412Z,10.30
2019-04-16T20:23:49.022Z,10.10
2019-04-16T20:26:17.677Z,9.90
2019-04-16T20:28:48.574Z,10.00
2019-04-16T20:31:16.681Z,9.90
2019-04-16T20:33:45.333Z,9.90
2019-04-16T20:36:13.992Z,9.80
2019-04-16T20:38:42.605Z,9.80
2019-04-16T20:41:11.259Z,9.80
2019-04-16T20:43:39.873Z,9.60
2019-04-16T20:46:08.532Z,9.40
2019-04-16T20:48:37.260Z,9.40
2019-04-16T20:51:06.133Z,9.30
2019-04-16T20:53:34.899Z,9.20
2019-04-16T20:56:03.703Z,9.10
2019-04-16T20:58:32.438Z,9.00
2019-04-16T21:01:01.183Z,8.90
2019-04-16T21:03:31.234Z,8.80
2019-04-16T21:06:00.290Z,8.70
2019-04-16T21:08:29.050Z,8.60
2019-04-16T21:10:59.790Z,8.60
2019-04-16T21:13:28.036Z,8.60
2019-04-16T21:15:57.217Z,8.60
2019-04-16T21:18:27.022Z,8.40
2019-04-16T21:20:55.696Z,8.40
2019-04-16T21:23:24.303Z,8.30
2019-04-16T21:25:52.913Z,8.20
2019-04-16T21:28:21.665Z,8.10
2019-04-16T21:30:50.379Z,8.10
2019-04-16T21:33:20.556Z,8.10
2019-04-16T21:35:49.402Z,8.10
2019-04-16T21:38:18.050Z,8.00
2019-04-16T21:40:46.659Z,7.90
2019-04-16T21:43:15.319Z,7.80
2019-04-16T21:45:45.634Z,7.70
2019-04-16T21:48:14.536Z,7.60
2019-04-16T21:50:44.513Z,7.60
2019-04-16T21:53:13.523Z,7.50
2019-04-16T21:55:42.174Z,7.40
2019-04-16T21:58:10.786Z,7.40
2019-04-16T22:00:39.442Z,7.40
2019-04-16T22:03:09.842Z,7.30
2019-04-16T22:05:38.663Z,7.30
2019-04-16T22:08:07.325Z,7.30
2019-04-16T22:10:35.998Z,7.20
2019-04-16T22:13:04.728Z,7.10
2019-04-16T22:15:33.375Z,7.00
2019-04-16T22:18:07.858Z,7.00
2019-04-16T22:20:35.819Z,6.90
2019-04-16T22:23:02.817Z,6.80
2019-04-16T22:25:31.470Z,6.80
2019-04-16T22:28:00.202Z,6.60
2019-04-16T22:30:28.858Z,6.60
2019-04-16T22:32:57.863Z,6.50
2019-04-16T22:35:26.562Z,6.40
2019-04-16T22:37:55.220Z,6.40
2019-04-16T22:40:23.873Z,6.40
2019-04-16T22:42:52.480Z,6.40
2019-04-16T22:45:21.130Z,6.40
2019-04-16T22:47:49.736Z,6.20
2019-04-16T22:50:18.448Z,6.30
2019-04-16T22:52:47.055Z,6.20
2019-04-16T22:55:15.715Z,6.10
2019-04-16T22:57:46.439Z,6.10
2019-04-16T23:00:14.827Z,6.10
2019-04-16T23:02:47.841Z,6.10
2019-04-16T23:05:13.861Z,6.10
2019-04-16T23:07:42.467Z,6.10
2019-04-16T23:10:11.257Z,6.00
2019-04-16T23:12:39.861Z,5.90
2019-04-16T23:15:08.820Z,5.80
2019-04-16T23:17:37.420Z,5.70
2019-04-16T23:20:06.406Z,5.60
2019-04-16T23:22:35.016Z,5.50
2019-04-16T23:25:04.662Z,5.50
2019-04-16T23:27:37.181Z,5.50
2019-04-16T23:30:05.952Z,5.40
2019-04-16T23:32:34.598Z,5.30
2019-04-16T23:35:09.189Z,5.40
2019-04-16T23:37:34.889Z,5.40
2019-04-16T23:40:07.119Z,5.30
2019-04-16T23:42:35.289Z,5.00
2019-04-16T23:45:06.135Z,5.10
2019-04-16T23:47:34.783Z,5.00
2019-04-16T23:50:03.907Z,5.00
2019-04-16T23:52:35.343Z,5.00
2019-04-16T23:55:03.711Z,4.80
2019-04-16T23:57:35.659Z,4.80
